Time;durP1;ratioP1;P1;durP2;ratioP2;P2;SDS_P1;SDS_P2;PMS_P1;PMS_P2;Temp;Humidity;BMP_temperature;BMP_pressure;BME280_temperature;BME280_humidity;BME280_pressure;Samples;Min_cycle;Max_cycle;Signal;HPM_P1;HPM_P2
2023/09/08 00:01:33;;;;;;;11.88;7.35;;;16.10;99.90;;;16.04;100.00;101128.88;5035393;28;20033;-82
2023/09/08 00:03:59;;;;;;;10.38;7.80;;;16.10;99.90;;;16.01;100.00;101132.13;5015708;28;20358;-82
2023/09/08 00:06:25;;;;;;;12.82;7.75;;;16.00;99.90;;;15.94;100.00;101128.69;5033821;28;20053;-82
2023/09/08 00:08:50;;;;;;;10.40;7.28;;;15.90;99.90;;;15.83;100.00;101127.56;5033640;28;20634;-81
2023/09/08 00:11:17;;;;;;;9.63;7.40;;;15.80;99.90;;;15.65;100.00;101121.16;5033659;28;20038;-82
2023/09/08 00:13:43;;;;;;;10.70;7.10;;;15.60;99.90;;;15.47;100.00;101115.75;5029587;28;20083;-81
2023/09/08 00:16:10;;;;;;;10.15;7.13;;;15.40;99.90;;;15.24;100.00;101098.97;5033789;28;20041;-83
2023/09/08 00:18:35;;;;;;;9.35;6.93;;;15.10;99.90;;;15.11;100.00;101093.72;5049038;28;20041;-82
2023/09/08 00:21:01;;;;;;;11.23;7.45;;;15.00;99.90;;;14.96;100.00;101086.75;5021415;28;20029;-81
2023/09/08 00:23:28;;;;;;;9.52;7.20;;;;;;;14.86;100.00;101074.69;5036645;28;20030;-82
2023/09/08 00:25:54;;;;;;;11.60;7.65;;;14.80;99.90;;;14.78;100.00;101054.72;5022050;28;20040;-82
2023/09/08 00:28:19;;;;;;;10.93;8.20;;;14.60;99.90;;;14.88;100.00;101053.31;5015298;28;20451;-82
2023/09/08 00:30:45;;;;;;;11.85;7.72;;;14.60;99.90;;;14.90;100.00;101045.69;5033950;28;20503;-82
2023/09/08 00:33:13;;;;;;;11.88;8.00;;;14.70;99.90;;;14.94;100.00;101055.13;5016345;28;20038;-82
2023/09/08 00:35:40;;;;;;;9.70;7.60;;;14.70;99.90;;;14.86;100.00;101049.97;5029901;28;20067;-82
2023/09/08 00:38:05;;;;;;;10.55;7.82;;;14.60;99.90;;;14.75;100.00;101044.19;5047922;28;20076;-82
2023/09/08 00:40:32;;;;;;;11.95;8.38;;;14.60;99.90;;;14.77;100.00;101042.06;5013714;28;20042;-82
2023/09/08 00:42:58;;;;;;;10.23;7.75;;;14.60;99.90;;;14.82;100.00;101036.69;5033708;28;20072;-82
2023/09/08 00:45:27;;;;;;;12.98;8.30;;;14.60;99.90;;;15.02;100.00;101021.78;5033267;28;20556;-82
2023/09/08 00:47:53;;;;;;;10.80;7.60;;;14.80;99.90;;;15.07;100.00;101024.66;4999180;28;20473;-82
2023/09/08 00:50:19;;;;;;;13.95;7.70;;;15.00;99.90;;;15.14;100.00;101029.22;5032781;28;20133;-82
2023/09/08 00:52:45;;;;;;;11.32;7.35;;;15.10;99.90;;;15.17;100.00;101048.81;5013111;28;20100;-81
2023/09/08 00:55:11;;;;;;;15.13;8.13;;;15.10;99.90;;;15.15;100.00;101070.19;5032832;28;20038;-82
2023/09/08 00:57:37;;;;;;;11.07;8.27;;;15.20;99.90;;;15.09;100.00;101062.91;5023175;28;20452;-82
2023/09/08 01:00:06;;;;;;;10.73;7.72;;;15.10;99.90;;;15.11;100.00;101063.50;5032738;28;20120;-82
2023/09/08 01:02:32;;;;;;;12.32;7.85;;;15.10;99.90;;;15.12;100.00;101069.81;5032632;28;20045;-82
2023/09/08 01:05:02;;;;;;;11.60;7.80;;;15.00;99.90;;;15.03;100.00;101063.84;5047760;28;20033;-82
2023/09/08 01:07:31;;;;;;;9.23;7.82;;;15.00;99.90;;;14.98;100.00;101056.31;5032959;28;20044;-83
2023/09/08 01:10:03;;;;;;;10.75;7.93;;;14.90;99.90;;;14.94;100.00;101053.19;5032341;28;20033;-82
2023/09/08 01:12:29;;;;;;;11.77;8.00;;;14.90;99.90;;;14.98;100.00;101050.81;5032455;28;20441;-82
2023/09/08 01:14:55;;;;;;;10.80;7.85;;;14.90;99.90;;;14.93;100.00;101043.28;5027757;28;20095;-83
2023/09/08 01:17:21;;;;;;;9.93;8.25;;;14.90;99.90;;;14.90;100.00;101046.50;5014687;28;20484;-83
2023/09/08 01:19:52;;;;;;;10.40;8.07;;;14.80;99.90;;;14.78;100.00;101040.97;5047901;28;20107;-82
2023/09/08 01:22:52;;;;;;;10.52;7.38;;;14.70;99.90;;;14.58;100.00;101044.00;5033430;28;20038;-82
2023/09/08 01:25:20;;;;;;;10.15;7.68;;;14.50;99.90;;;14.39;100.00;101035.00;5032213;28;20102;-82
2023/09/08 01:27:57;;;;;;;11.90;8.65;;;14.30;99.90;;;14.30;100.00;101022.66;5047470;28;20043;-82
2023/09/08 01:30:26;;;;;;;12.40;8.13;;;;;;;14.21;100.00;101008.44;5032364;28;20136;-83
2023/09/08 01:32:54;;;;;;;12.52;8.32;;;;;;;14.18;100.00;100996.03;5032190;28;20357;-82
2023/09/08 01:35:20;;;;;;;10.65;8.30;;;14.20;99.90;;;14.14;100.00;100978.34;5032362;28;20053;-82
2023/09/08 01:37:48;;;;;;;11.55;9.30;;;14.00;99.90;;;14.07;100.00;100961.97;5020576;28;20083;-82
2023/09/08 01:40:15;;;;;;;11.93;9.00;;;13.90;99.90;;;14.04;100.00;100950.63;5014361;28;20033;-82
2023/09/08 01:42:42;;;;;;;10.90;9.45;;;13.80;99.90;;;13.99;100.00;100954.09;5047076;28;20076;-82
2023/09/08 01:45:08;;;;;;;13.95;9.20;;;13.80;99.90;;;14.02;100.00;100933.56;5031647;28;20480;-82
2023/09/08 01:47:35;;;;;;;10.85;9.25;;;13.80;99.90;;;14.04;100.00;100931.41;5028943;28;20037;-82
2023/09/08 01:50:01;;;;;;;11.73;8.98;;;13.80;99.90;;;13.97;100.00;100916.97;5032510;28;20044;-82
2023/09/08 01:52:27;;;;;;;12.60;9.25;;;13.70;99.90;;;13.90;100.00;100917.91;5034974;28;20054;-83
2023/09/08 01:54:54;;;;;;;10.13;8.60;;;13.70;99.90;;;13.89;100.00;100915.38;5031547;28;20037;-82
2023/09/08 01:57:19;;;;;;;11.35;9.27;;;13.60;99.90;;;13.82;100.00;100904.53;5032293;28;20559;-82
2023/09/08 01:59:45;;;;;;;11.80;9.95;;;13.60;99.90;;;13.84;100.00;100902.41;5031143;28;20041;-82
2023/09/08 02:02:11;;;;;;;13.77;9.95;;;13.60;99.90;;;13.88;100.00;100892.63;5027240;28;20039;-82
2023/09/08 02:04:37;;;;;;;11.80;9.00;;;13.60;99.90;;;13.95;100.00;100878.84;5011164;28;20136;-83
2023/09/08 02:07:04;;;;;;;12.07;9.55;;;13.60;99.90;;;14.05;100.00;100886.47;5028141;28;20064;-82
2023/09/08 02:09:36;;;;;;;12.63;9.75;;;13.60;99.90;;;14.04;100.00;100901.25;5031424;28;20037;-82
2023/09/08 02:12:03;;;;;;;13.32;9.80;;;13.60;99.90;;;14.05;100.00;100905.66;5031758;28;20449;-82
2023/09/08 02:14:30;;;;;;;14.02;9.85;;;13.60;99.90;;;14.09;100.00;100901.41;5031592;28;20171;-82
2023/09/08 02:16:56;;;;;;;12.32;10.00;;;13.60;99.90;;;14.05;100.00;100913.91;5046579;28;20129;-83
2023/09/08 02:19:23;;;;;;;15.85;10.40;;;13.60;99.90;;;14.00;100.00;100916.50;5031683;28;20184;-82
2023/09/08 02:21:49;;;;;;;12.10;9.60;;;13.60;99.90;;;13.98;100.00;100915.91;5031347;28;20041;-82
2023/09/08 02:24:15;;;;;;;12.63;10.10;;;13.60;99.90;;;13.91;100.00;100911.34;5031718;28;20093;-82
2023/09/08 02:26:42;;;;;;;12.05;9.40;;;13.50;99.90;;;13.84;100.00;100907.88;5014067;28;20033;-82
2023/09/08 02:29:08;;;;;;;12.23;9.70;;;13.50;99.90;;;13.75;100.00;100907.38;5031705;28;20045;-83
2023/09/08 02:31:34;;;;;;;13.10;9.77;;;13.40;99.90;;;13.69;100.00;100905.56;5027672;28;20121;-83
2023/09/08 02:34:03;;;;;;;;;;;13.30;99.90;;;13.57;100.00;100902.75;5015790;28;20512;-83
2023/09/08 02:36:29;;;;;;;14.40;9.73;;;13.30;99.90;;;13.52;100.00;100899.84;5032697;28;19921;-82
2023/09/08 02:38:57;;;;;;;14.17;10.70;;;13.20;99.90;;;13.46;100.00;100895.28;5014195;28;20033;-83
2023/09/08 02:41:23;;;;;;;14.85;10.10;;;13.20;99.90;;;13.42;100.00;100877.59;4997284;28;20037;-83
2023/09/08 02:43:49;;;;;;;12.45;9.98;;;13.10;99.90;;;13.36;100.00;100863.78;5013243;28;20128;-83
2023/09/08 02:46:16;;;;;;;13.23;9.63;;;13.10;99.90;;;13.31;100.00;100852.66;5017591;28;20037;-83
2023/09/08 02:48:42;;;;;;;13.55;10.25;;;13.00;99.90;;;13.33;100.00;100852.41;5020159;28;20057;-83
2023/09/08 02:51:08;;;;;;;15.32;10.95;;;13.00;99.90;;;13.35;100.00;100844.81;5027514;28;20060;-83
2023/09/08 02:53:34;;;;;;;13.73;11.27;;;13.00;99.90;;;13.29;100.00;100840.25;5013664;28;20558;-83
2023/09/08 02:56:00;;;;;;;14.80;10.43;;;13.00;99.90;;;13.23;100.00;100837.38;5031724;28;20045;-82
2023/09/08 02:58:27;;;;;;;17.52;11.07;;;12.90;99.90;;;13.16;100.00;100841.25;5018138;28;20060;-83
2023/09/08 03:00:53;;;;;;;14.27;10.20;;;12.90;99.90;;;13.09;100.00;100836.69;5035207;28;20040;-83
2023/09/08 03:03:22;;;;;;;13.43;10.60;;;12.80;99.90;;;13.00;100.00;100838.09;5035301;28;20452;-83
2023/09/08 03:05:56;;;;;;;15.63;11.52;;;12.80;99.90;;;12.96;100.00;100836.84;5025887;28;20492;-83
2023/09/08 03:08:23;;;;;;;13.80;10.25;;;12.70;99.90;;;12.88;100.00;100829.78;5033810;28;20042;-82
2023/09/08 03:10:49;;;;;;;13.40;10.00;;;12.60;99.90;;;12.76;100.00;100829.72;5015452;28;20033;-82
2023/09/08 03:13:15;;;;;;;13.13;9.68;;;12.60;99.90;;;12.55;100.00;100822.75;5035473;28;20041;-82
2023/09/08 03:15:40;;;;;;;10.75;8.80;;;12.40;99.90;;;12.39;100.00;100826.06;5017512;28;20033;-82
2023/09/08 03:18:06;;;;;;;13.70;11.10;;;12.30;99.90;;;12.25;100.00;100817.16;5034731;28;20090;-82
2023/09/08 03:20:33;;;;;;;15.75;11.05;;;12.20;99.90;;;12.26;100.00;100802.41;5025072;28;20171;-82
2023/09/08 03:22:59;;;;;;;13.25;10.27;;;12.10;99.90;;;12.23;100.00;100793.59;5030387;28;20071;-82
2023/09/08 03:25:25;;;;;;;14.30;11.75;;;12.10;99.90;;;12.24;100.00;100788.94;5034648;28;20064;-82
2023/09/08 03:27:51;;;;;;;15.93;11.27;;;12.10;99.90;;;12.20;100.00;100785.84;5034669;28;20129;-82
2023/09/08 03:30:16;;;;;;;14.82;11.48;;;12.00;99.90;;;12.15;100.00;100777.44;5025588;28;20045;-82
2023/09/08 03:32:43;;;;;;;18.00;11.90;;;12.00;99.90;;;12.11;100.00;100768.03;5022212;28;20035;-82
2023/09/08 03:35:09;;;;;;;15.32;12.23;;;12.00;99.90;;;12.10;100.00;100763.63;5022852;28;20029;-82
2023/09/08 03:37:36;;;;;;;17.27;12.02;;;11.90;99.90;;;12.10;100.00;100746.38;5034442;28;20375;-82
2023/09/08 03:40:04;;;;;;;15.25;12.32;;;12.00;99.90;;;12.10;100.00;100736.28;5023725;28;20025;-81
2023/09/08 03:42:30;;;;;;;14.23;11.82;;;12.00;99.90;;;12.14;100.00;100737.50;5027431;28;20033;-81
2023/09/08 03:44:55;;;;;;;15.50;12.25;;;12.00;99.90;;;12.13;100.00;100726.78;5019394;28;20052;-82
2023/09/08 03:47:21;;;;;;;16.35;12.65;;;12.00;99.90;;;12.19;100.00;100723.16;5024358;28;20033;-82
2023/09/08 03:49:47;;;;;;;17.50;13.23;;;12.10;99.90;;;12.28;100.00;100710.03;5034075;28;20447;-82
2023/09/08 03:52:13;;;;;;;19.23;14.32;;;12.10;99.90;;;12.37;100.00;100714.97;5032910;28;20064;-81
2023/09/08 03:54:39;;;;;;;20.67;15.45;;;12.20;99.90;;;12.34;100.00;100689.97;5007611;28;20102;-82
2023/09/08 03:57:04;;;;;;;17.63;14.75;;;12.20;99.90;;;12.50;100.00;100675.69;5022594;28;20029;-82
2023/09/08 03:59:30;;;;;;;22.63;14.82;;;12.40;99.90;;;12.49;100.00;100663.06;5033659;28;20483;-82
2023/09/08 04:01:56;;;;;;;19.55;15.23;;;12.40;99.90;;;12.46;100.00;100662.69;5000318;28;20048;-89
2023/09/08 04:04:22;;;;;;;19.38;15.85;;;12.30;99.90;;;12.38;100.00;100674.75;5033507;28;20124;-82
2023/09/08 04:06:48;;;;;;;20.17;14.70;;;12.20;99.90;;;12.31;100.00;100672.09;5016057;28;20048;-82
2023/09/08 04:09:13;;;;;;;18.65;14.77;;;12.10;99.90;;;12.30;100.00;100670.41;5021703;28;20038;-81
2023/09/08 04:11:39;;;;;;;18.60;14.55;;;12.10;99.90;;;12.28;100.00;100669.00;5027385;28;20087;-81
2023/09/08 04:14:05;;;;;;;20.00;14.38;;;12.10;99.90;;;12.21;100.00;100672.66;5035926;28;20396;-82
2023/09/08 04:16:31;;;;;;;17.98;14.15;;;12.00;99.90;;;12.20;100.00;100662.78;5035319;28;20538;-82
2023/09/08 04:18:58;;;;;;;18.88;15.05;;;12.00;99.90;;;12.22;100.00;100679.78;5021775;28;20069;-80
2023/09/08 04:21:24;;;;;;;17.65;13.65;;;12.00;99.90;;;12.18;100.00;100684.00;5040262;28;20072;-81
2023/09/08 04:23:49;;;;;;;15.43;12.52;;;12.00;99.90;;;12.09;100.00;100688.13;5032125;28;20037;-83
2023/09/08 04:26:15;;;;;;;16.70;13.63;;;11.90;99.90;;;12.07;100.00;100698.44;5016190;28;20464;-81
2023/09/08 04:28:41;;;;;;;17.92;14.07;;;11.90;99.90;;;11.94;100.00;100694.75;5033907;28;20618;-81
2023/09/08 04:31:07;;;;;;;19.38;14.13;;;11.80;99.90;;;11.87;100.00;100693.97;5014978;28;20029;-82
2023/09/08 04:33:33;;;;;;;17.25;12.85;;;11.70;99.90;;;11.81;100.00;100700.34;5033607;28;20046;-82
2023/09/08 04:35:58;;;;;;;19.10;14.35;;;11.60;99.90;;;11.72;100.00;100697.03;5035287;28;20044;-82
2023/09/08 04:38:24;;;;;;;18.95;14.50;;;11.60;99.90;;;11.71;100.00;100700.84;5033481;28;20041;-82
2023/09/08 04:40:50;;;;;;;19.67;14.85;;;11.50;99.90;;;11.66;100.00;100698.75;5012160;28;20038;-82
2023/09/08 04:43:16;;;;;;;18.17;14.45;;;11.50;99.90;;;11.60;100.00;100686.00;5015668;28;20604;-82
2023/09/08 04:45:42;;;;;;;21.52;14.55;;;11.50;99.90;;;11.62;100.00;100681.13;5015347;28;20043;-83
2023/09/08 04:48:09;;;;;;;22.70;17.17;;;11.50;99.90;;;11.66;100.00;100671.44;5015228;28;20037;-84
2023/09/08 04:50:34;;;;;;;23.75;18.50;;;11.50;99.90;;;11.73;100.00;100656.91;5032371;28;20044;-83
2023/09/08 04:53:00;;;;;;;29.33;20.00;;;11.60;99.90;;;11.85;100.00;100638.69;5015430;28;20041;-83
2023/09/08 04:55:26;;;;;;;30.55;22.40;;;11.80;99.90;;;12.00;100.00;100627.38;5015414;28;20168;-81
2023/09/08 04:57:52;;;;;;;29.02;22.77;;;11.80;99.90;;;12.20;100.00;100610.81;5032938;28;20751;-84
2023/09/08 05:00:18;;;;;;;32.67;22.42;;;12.00;99.90;;;12.39;100.00;100601.75;5022199;28;20469;-82
2023/09/08 05:02:45;;;;;;;28.58;22.13;;;12.20;99.90;;;12.59;100.00;100604.22;5031668;28;20033;-84
2023/09/08 05:05:11;;;;;;;31.90;21.55;;;12.30;99.90;;;12.70;100.00;100581.50;5032657;28;20109;-83
2023/09/08 05:07:37;;;;;;;31.67;21.42;;;12.50;99.90;;;12.89;100.00;100584.19;5030762;28;20052;-81
2023/09/08 05:10:03;;;;;;;32.30;22.23;;;12.60;99.90;;;12.96;100.00;100582.19;5038714;28;20087;-80
2023/09/08 05:12:32;;;;;;;34.33;22.73;;;12.70;99.90;;;13.05;100.00;100580.78;5011551;28;20030;-80
2023/09/08 05:15:06;;;;;;;30.00;22.17;;;12.80;99.90;;;13.14;100.00;100588.66;5015220;28;20040;-80
2023/09/08 05:17:33;;;;;;;34.05;23.02;;;12.80;99.90;;;13.27;100.00;100584.88;5017360;28;20025;-80
2023/09/08 05:19:59;;;;;;;40.10;24.20;;;13.00;99.90;;;13.37;100.00;100593.31;5015916;28;20029;-80
2023/09/08 05:22:25;;;;;;;29.33;22.63;;;13.10;99.90;;;13.45;100.00;100603.97;5032560;28;20386;-80
2023/09/08 05:24:51;;;;;;;27.05;20.73;;;13.10;99.90;;;13.43;100.00;100614.34;5028944;28;20034;-82
2023/09/08 05:27:16;;;;;;;25.42;19.67;;;13.10;99.90;;;13.52;100.00;100647.69;5031610;28;20041;-81
2023/09/08 05:29:42;;;;;;;35.63;20.75;;;13.10;99.90;;;13.52;100.00;100655.91;5010784;28;20050;-80
2023/09/08 05:32:08;;;;;;;29.95;20.17;;;13.20;99.90;;;13.58;100.00;100668.69;5014297;28;20059;-80
2023/09/08 05:34:34;;;;;;;27.48;19.88;;;13.20;99.90;;;13.60;100.00;100672.03;5014428;28;20145;-80
2023/09/08 05:37:00;;;;;;;24.27;19.35;;;13.20;99.90;;;13.63;100.00;100676.19;5015019;28;20029;-79
2023/09/08 05:39:26;;;;;;;27.05;20.42;;;13.30;99.90;;;13.75;100.00;100685.28;5018811;28;20060;-76
2023/09/08 05:41:52;;;;;;;30.52;20.10;;;13.40;99.90;;;13.82;100.00;100679.69;5014619;28;20021;-77
2023/09/08 05:44:20;;;;;;;27.13;20.48;;;13.50;99.90;;;13.97;100.00;100692.06;5030215;28;20511;-81
2023/09/08 05:46:45;;;;;;;26.75;19.50;;;13.60;99.90;;;14.01;100.00;100687.78;5032022;28;20072;-79
2023/09/08 05:49:12;;;;;;;22.80;17.98;;;13.70;99.90;;;14.20;100.00;100711.28;5021418;28;20120;-80
2023/09/08 05:51:37;;;;;;;26.00;18.33;;;13.80;99.90;;;14.31;100.00;100716.97;5010841;28;20029;-79
2023/09/08 05:54:04;;;;;;;25.73;17.95;;;13.90;99.90;;;14.41;100.00;100730.94;5031783;28;20044;-78
2023/09/08 05:56:31;;;;;;;26.13;17.60;;;14.00;99.90;;;14.53;100.00;100763.88;5029637;28;20038;-78
2023/09/08 05:58:58;;;;;;;24.38;17.30;;;14.20;99.90;;;14.61;100.00;100773.66;5029483;28;20029;-77
2023/09/08 06:01:24;;;;;;;24.40;16.60;;;14.30;99.90;;;14.71;100.00;100786.78;5030014;28;20091;-77
2023/09/08 06:03:50;;;;;;;21.95;16.17;;;14.30;99.90;;;14.84;100.00;100808.50;5014202;28;20040;-77
2023/09/08 06:06:16;;;;;;;22.08;16.48;;;14.50;99.90;;;14.95;100.00;100812.31;5019113;28;20037;-77
2023/09/08 06:08:42;;;;;;;19.92;15.38;;;14.70;99.90;;;15.14;100.00;100836.88;5031897;28;20030;-79
2023/09/08 06:11:08;;;;;;;19.70;14.70;;;14.80;99.90;;;15.34;100.00;100858.44;5022933;28;20038;-80
2023/09/08 06:13:35;;;;;;;20.23;14.38;;;15.00;99.90;;;15.48;100.00;100884.56;5007778;28;20033;-78
2023/09/08 06:16:01;;;;;;;17.25;13.63;;;15.20;99.90;;;15.69;100.00;100909.72;5014182;28;20078;-77
2023/09/08 06:18:32;;;;;;;17.58;13.38;;;15.40;99.90;;;15.84;100.00;100933.94;5031214;28;20037;-77
2023/09/08 06:20:58;;;;;;;16.73;12.93;;;15.50;99.90;;;16.02;100.00;100945.88;5024690;28;20040;-76
2023/09/08 06:23:24;;;;;;;15.43;12.50;;;15.70;99.90;;;16.16;100.00;100974.75;5013277;28;20118;-76
2023/09/08 06:25:59;;;;;;;17.80;12.60;;;15.90;99.90;;;16.38;100.00;100996.91;5021015;28;20037;-79
2023/09/08 06:28:29;;;;;;;16.00;11.98;;;16.10;99.90;;;16.52;100.00;100996.59;5012787;28;20045;-80
2023/09/08 06:30:55;;;;;;;17.88;11.43;;;16.30;99.90;;;16.73;100.00;101024.50;5031043;28;20079;-81
2023/09/08 06:33:24;;;;;;;18.85;11.40;;;16.50;99.90;;;16.91;100.00;101043.56;5017007;28;20393;-79
2023/09/08 06:35:50;;;;;;;15.50;11.90;;;16.60;99.90;;;17.08;100.00;101039.97;5033757;28;20025;-79
2023/09/08 06:38:16;;;;;;;16.25;11.35;;;;;;;17.19;100.00;101052.00;5030730;28;20041;-79
2023/09/08 06:40:42;;;;;;;17.05;10.77;;;16.70;99.90;;;17.32;100.00;101057.19;5031133;28;20116;-79
2023/09/08 06:43:08;;;;;;;16.13;10.45;;;17.00;99.90;;;17.48;100.00;101058.25;5031822;28;20119;-81
2023/09/08 06:45:50;;;;;;;14.70;10.65;;;17.20;99.90;;;17.62;100.00;101064.22;5017363;28;20435;-81
2023/09/08 06:48:16;;;;;;;13.18;10.18;;;17.30;99.90;;;17.72;100.00;101077.34;5013144;28;20034;-80
2023/09/08 06:50:42;;;;;;;17.88;11.27;;;17.40;99.90;;;17.88;100.00;101074.78;5015636;28;20408;-80
2023/09/08 06:53:08;;;;;;;14.15;10.02;;;17.60;99.90;;;17.93;100.00;101089.47;5012750;28;20054;-79
2023/09/08 06:55:34;;;;;;;13.13;9.05;;;17.70;99.90;;;18.14;100.00;101111.88;5014100;28;20029;-81
2023/09/08 06:58:00;;;;;;;16.33;10.00;;;17.90;99.90;;;18.24;100.00;101106.47;5046579;28;20464;-79
2023/09/08 07:00:26;;;;;;;12.98;8.73;;;18.10;99.90;;;18.43;100.00;101108.91;5011706;28;21124;-78
2023/09/08 07:02:53;;;;;;;12.27;9.18;;;18.20;99.90;;;18.60;100.00;101124.56;5025706;28;20164;-81
2023/09/08 07:05:19;;;;;;;12.80;8.95;;;18.40;99.90;;;18.68;100.00;101130.44;5014356;28;20117;-83
2023/09/08 07:07:45;;;;;;;13.35;9.43;;;18.50;99.90;;;18.86;100.00;101135.88;5034072;28;20025;-83
2023/09/08 07:10:12;;;;;;;15.35;9.55;;;18.60;99.90;;;19.04;100.00;101123.66;5031427;28;20044;-81
2023/09/08 07:12:38;;;;;;;14.23;10.02;;;18.80;99.90;;;19.19;100.00;101125.72;5019375;28;20378;-82
2023/09/08 07:15:04;;;;;;;12.10;8.88;;;18.90;99.90;;;19.24;100.00;101136.81;5033432;28;20087;-82
2023/09/08 07:17:30;;;;;;;11.93;8.82;;;19.00;99.90;;;19.42;100.00;101134.75;5012791;28;20398;-82
2023/09/08 07:19:55;;;;;;;14.75;8.50;;;19.20;99.90;;;19.60;100.00;101137.09;5016138;28;20044;-82
2023/09/08 07:22:21;;;;;;;14.32;8.52;;;19.30;99.90;;;19.68;100.00;101147.69;5033729;28;20025;-84
2023/09/08 07:24:47;;;;;;;12.02;8.02;;;19.40;99.90;;;19.81;100.00;101137.22;5013387;28;20060;-83
2023/09/08 07:27:15;;;;;;;;;;;19.60;99.90;;;19.92;100.00;101147.31;5025107;28;20036;-82
2023/09/08 07:29:41;;;;;;;10.73;7.97;;;19.70;99.90;;;20.10;100.00;101157.09;5045645;28;20339;-82
2023/09/08 07:32:08;;;;;;;11.32;7.78;;;19.80;99.90;;;20.26;100.00;101146.06;5027615;28;20497;-82
2023/09/08 07:34:34;;;;;;;12.38;7.55;;;20.00;99.90;;;20.34;100.00;101155.81;5019439;28;20025;-82
2023/09/08 07:37:01;;;;;;;11.88;8.07;;;20.10;99.90;;;20.53;100.00;101142.28;5037032;28;20030;-83
2023/09/08 07:39:27;;;;;;;13.70;7.85;;;20.30;99.90;;;20.67;100.00;101165.63;5034259;28;20092;-83
2023/09/08 07:41:54;;;;;;;9.65;6.85;;;20.40;99.90;;;20.87;100.00;101158.50;5029972;28;20106;-81
2023/09/08 07:44:19;;;;;;;9.63;7.30;;;20.50;99.90;;;21.00;100.00;101146.06;5010923;28;20040;-82
2023/09/08 07:46:48;;;;;;;10.90;6.72;;;20.70;99.90;;;21.18;100.00;101152.16;5014487;28;20029;-83
2023/09/08 07:49:15;;;;;;;9.75;6.45;;;20.80;99.90;;;21.26;100.00;101146.88;5029399;28;20538;-83
2023/09/08 07:51:41;;;;;;;9.27;6.50;;;21.00;99.90;;;21.43;100.00;101148.56;5034618;28;20041;-81
2023/09/08 07:54:06;;;;;;;11.13;6.53;;;21.20;99.90;;;21.62;100.00;101154.38;5034069;28;20048;-80
2023/09/08 07:56:32;;;;;;;11.18;6.95;;;21.30;99.90;;;21.75;100.00;101152.16;5048907;28;20107;-79
2023/09/08 07:58:58;;;;;;;10.82;7.22;;;;;;;21.89;100.00;101150.47;5033827;28;20044;-80
2023/09/08 08:01:24;;;;;;;9.18;6.60;;;;;;;22.03;100.00;101149.88;5032819;28;20051;-80
2023/09/08 08:03:51;;;;;;;12.07;6.90;;;;;;;22.16;100.00;101154.84;5033695;28;20076;-80
2023/09/08 08:06:17;;;;;;;12.02;7.07;;;;;;;22.31;100.00;101155.91;5031530;28;20669;-81
2023/09/08 08:08:43;;;;;;;9.00;6.50;;;21.40;99.90;;;22.35;100.00;101157.00;5032384;28;20136;-79
2023/09/08 08:11:20;;;;;;;9.85;6.10;;;22.10;99.90;;;22.62;100.00;101161.34;5048876;28;20080;-85
2023/09/08 08:13:46;;;;;;;9.88;6.75;;;22.20;99.90;;;22.72;100.00;101161.28;5033900;28;20044;-80
2023/09/08 08:16:12;;;;;;;10.15;6.68;;;22.40;99.90;;;22.83;100.00;101170.41;5033966;28;20577;-80
2023/09/08 08:18:38;;;;;;;12.23;7.07;;;22.50;99.90;;;22.74;100.00;101167.38;5049040;28;20109;-79
2023/09/08 08:21:04;;;;;;;9.80;6.18;;;22.60;99.90;;;22.98;100.00;101169.47;5033976;28;20040;-81
2023/09/08 08:23:30;;;;;;;9.98;6.18;;;;;;;23.24;100.00;101172.91;5034166;28;20193;-84
2023/09/08 08:25:57;;;;;;;8.53;5.47;;;22.70;99.90;;;23.42;100.00;101168.63;5034027;28;20488;-84
2023/09/08 08:28:24;;;;;;;10.35;5.85;;;;;;;23.58;100.00;101176.00;5038771;28;20291;-81
2023/09/08 08:30:51;;;;;;;10.82;6.07;;;23.00;99.90;;;23.72;100.00;101170.56;5034464;28;20457;-78
2023/09/08 08:33:17;;;;;;;10.13;5.80;;;23.30;99.90;;;23.68;100.00;101165.59;5016942;28;20072;-78
2023/09/08 08:35:50;;;;;;;9.43;5.95;;;23.40;99.90;;;23.78;100.00;101167.44;5033528;28;20072;-78
2023/09/08 08:38:15;;;;;;;10.38;5.88;;;23.50;99.90;;;24.02;100.00;101163.88;5038157;28;20037;-78
2023/09/08 08:40:41;;;;;;;7.45;5.95;;;23.70;99.90;;;24.16;100.00;101169.59;5033158;28;20527;-80
2023/09/08 08:43:08;;;;;;;8.95;5.65;;;;;;;24.33;100.00;101168.25;5019281;28;20572;-77
2023/09/08 08:45:36;;;;;;;10.90;6.28;;;;;;;24.52;100.00;101173.84;5032728;28;20084;-78
2023/09/08 08:48:04;;;;;;;9.15;5.82;;;;;;;24.71;100.00;101176.69;5039059;28;20042;-80
2023/09/08 08:50:32;;;;;;;10.98;6.05;;;;;;;24.80;100.00;101174.91;5034085;28;20037;-79
2023/09/08 08:52:59;;;;;;;9.80;5.22;;;;;;;24.93;100.00;101180.84;5033034;28;20041;-80
2023/09/08 08:55:26;;;;;;;7.57;5.18;;;;;;;24.94;100.00;101168.59;5039532;28;20037;-80
2023/09/08 08:57:53;;;;;;;9.07;5.20;;;;;;;25.17;100.00;101169.63;5037384;28;20071;-79
2023/09/08 09:00:19;;;;;;;6.43;5.10;;;;;;;25.39;100.00;101168.97;5034141;28;20510;-81
2023/09/08 09:02:48;;;;;;;7.78;4.90;;;;;;;25.63;100.00;101156.84;5032991;28;20495;-80
2023/09/08 09:05:15;;;;;;;11.60;5.50;;;;;;;25.74;100.00;101157.50;5001822;28;20052;-80
2023/09/08 09:07:44;;;;;;;10.87;5.30;;;;;;;26.02;100.00;101156.72;5031950;28;20037;-80
2023/09/08 09:10:11;;;;;;;9.10;5.18;;;;;;;26.16;100.00;101157.56;5042838;28;20443;-81
2023/09/08 09:12:40;;;;;;;9.38;5.13;;;;;;;26.30;100.00;101149.16;5041320;28;20086;-80
2023/09/08 09:15:08;;;;;;;9.32;5.40;;;;;;;26.55;100.00;101146.97;5036306;28;20045;-81
2023/09/08 09:17:35;;;;;;;7.80;4.85;;;;;;;26.63;100.00;101146.22;5035733;28;20029;-81
2023/09/08 09:20:17;;;;;;;10.32;5.07;;;;;;;26.76;97.44;101158.50;5033367;28;20045;-82
2023/09/08 09:22:44;;;;;;;7.32;4.85;;;;;;;27.12;97.49;101159.66;5037197;28;20076;-82
2023/09/08 09:25:21;;;;;;;9.70;5.00;;;;;;;27.22;91.03;101155.78;5032985;28;20114;-82
2023/09/08 09:27:55;;;;;;;10.63;4.97;;;;;;;27.21;97.28;101154.13;5032589;28;20511;-82
2023/09/08 09:30:23;;;;;;;8.95;5.20;;;;;;;27.34;99.81;101156.06;5033024;28;20056;-81
2023/09/08 09:33:02;;;;;;;9.90;5.00;;;;;;;27.43;96.18;101148.53;5025835;28;20068;-81
2023/09/08 09:35:52;;;;;;;10.88;5.07;;;;;;;27.37;84.41;101146.16;5033050;28;20041;-82
2023/09/08 09:38:22;;;;;;;8.80;4.95;;;;;;;27.62;91.27;101147.53;5031748;28;20033;-80
2023/09/08 09:40:48;;;;;;;10.00;4.50;;;;;;;27.85;87.87;101144.66;5034232;28;20043;-81
2023/09/08 09:43:16;;;;;;;7.75;4.75;;;;;;;27.90;79.61;101138.06;5032669;28;20041;-82
2023/09/08 09:45:43;;;;;;;11.23;5.18;;;;;;;27.77;75.99;101145.44;5018899;28;20033;-80
2023/09/08 09:48:10;;;;;;;7.35;4.95;;;;;;;27.73;80.25;101150.88;5035875;28;20045;-82
2023/09/08 09:50:39;;;;;;;9.02;4.80;;;;;;;27.61;76.48;101143.06;5037153;28;20033;-81
2023/09/08 09:53:13;;;;;;;9.07;4.88;;;;;;;28.12;90.29;101148.41;5009047;28;20037;-80
2023/09/08 09:55:42;;;;;;;12.38;5.10;;;;;;;28.45;82.77;101145.22;5028833;28;20257;-80
2023/09/08 09:58:10;;;;;;;6.63;4.25;;;;;;;28.68;84.39;101142.25;5029471;28;21142;-81
2023/09/08 10:00:37;;;;;;;8.35;4.50;;;;;;;28.81;70.01;101144.09;5032185;28;20065;-80
2023/09/08 10:03:05;;;;;;;6.45;4.50;;;;;;;29.53;60.16;101132.47;5031690;28;20041;-79
2023/09/08 10:05:31;;;;;;;7.68;4.75;;;;;;;30.36;58.00;101128.66;5032080;28;20033;-80
2023/09/08 10:07:58;;;;;;;7.63;4.75;;;;;;;30.90;53.13;101127.94;5032611;28;20034;-80
2023/09/08 10:10:28;;;;;;;5.60;4.20;;;;;;;31.71;54.67;101136.06;5032437;28;20040;-80